Time;durP1;ratioP1;P1;durP2;ratioP2;P2;SDS_P1;SDS_P2;PMS_P1;PMS_P2;Temp;Humidity;BMP_temperature;BMP_pressure;BME280_temperature;BME280_humidity;BME280_pressure;Samples;Min_cycle;Max_cycle;Signal;HPM_P1;HPM_P2
2022/06/12 00:00:30;;;;;;;16.60;7.05;;;;;;;17.34;77.37;101498.69;6252729;23;20020;-81
2022/06/12 00:02:58;;;;;;;16.55;6.78;;;;;;;17.31;77.67;101504.34;6253923;23;20070;-80
2022/06/12 00:05:28;;;;;;;15.25;7.18;;;;;;;17.25;77.80;101494.47;6251780;23;20035;-82
2022/06/12 00:07:56;;;;;;;17.17;7.72;;;;;;;17.19;78.25;101495.19;6252605;23;20024;-81
2022/06/12 00:10:23;;;;;;;16.48;7.43;;;;;;;17.22;78.41;101502.75;6252026;23;20028;-81
2022/06/12 00:12:50;;;;;;;13.52;7.32;;;;;;;17.16;78.72;101500.81;6251959;22;20321;-81
2022/06/12 00:15:21;;;;;;;17.20;7.63;;;;;;;17.17;78.88;101502.47;6258383;23;20062;-79
2022/06/12 00:17:48;;;;;;;13.70;7.10;;;;;;;17.15;78.61;101507.94;6259101;23;20020;-81
2022/06/12 00:20:17;;;;;;;18.25;7.80;;;;;;;17.14;78.45;101502.81;6259406;23;20024;-81
2022/06/12 00:22:45;;;;;;;15.00;7.18;;;;;;;17.17;78.41;101508.59;6254476;22;20021;-80
2022/06/12 00:25:14;;;;;;;13.63;8.00;;;;;;;17.11;78.61;101508.47;6254061;23;20020;-80
2022/06/12 00:27:42;;;;;;;17.40;7.25;;;;;;;17.09;78.43;101505.19;6254609;23;20046;-81
2022/06/12 00:30:12;;;;;;;13.20;7.40;;;;;;;17.04;78.33;101502.25;6255368;23;20035;-80
2022/06/12 00:32:39;;;;;;;20.83;8.43;;;;;;;17.01;79.10;101497.34;6253965;22;20024;-80
2022/06/12 00:35:08;;;;;;;15.45;7.93;;;;;;;16.94;79.36;101506.97;6255568;23;20027;-80
2022/06/12 00:37:36;;;;;;;16.88;8.43;;;;;;;16.87;79.04;101505.03;6251791;23;20016;-79
2022/06/12 00:40:05;;;;;;;17.13;8.00;;;;;;;16.83;79.36;101495.78;6254948;23;20028;-81
2022/06/12 00:42:37;;;;;;;14.68;8.07;;;;;;;16.79;79.78;101483.94;6247306;22;20016;-81
2022/06/12 00:45:29;;;;;;;17.55;9.60;;;;;;;16.80;79.89;101511.19;6253912;23;20074;-82
2022/06/12 00:47:56;;;;;;;18.20;8.63;;;;;;;16.77;80.21;101514.16;6255139;23;20024;-81
2022/06/12 00:50:23;;;;;;;20.55;9.32;;;;;;;16.71;80.63;101507.75;6257104;23;20020;-82
2022/06/12 00:52:51;;;;;;;16.48;9.00;;;;;;;16.62;80.98;101516.69;6254598;22;20027;-80
2022/06/12 00:55:24;;;;;;;16.90;8.65;;;;;;;16.54;81.61;101511.50;6254144;23;20031;-82
2022/06/12 00:57:56;;;;;;;21.38;9.15;;;;;;;16.49;81.69;101521.75;6254789;23;20024;-80
2022/06/12 01:00:23;;;;;;;18.77;9.52;;;;;;;16.49;81.70;101514.66;6254399;23;20020;-82
2022/06/12 01:02:50;;;;;;;24.00;10.05;;;;;;;16.46;81.59;101509.72;6253445;22;20089;-79
2022/06/12 01:08:09;;;;;;;23.08;9.57;;;;;;;16.47;81.36;101510.53;6251215;23;20399;-79
2022/06/12 01:10:39;;;;;;;21.63;9.32;;;;;;;16.45;81.23;101508.06;6263830;23;20024;-83
2022/06/12 01:13:12;;;;;;;20.75;8.88;;;;;;;16.45;80.91;101512.53;6270987;22;20024;-83
2022/06/12 01:15:44;;;;;;;16.00;8.88;;;;;;;16.37;81.13;101515.19;6271502;22;20012;-84
2022/06/12 01:18:13;;;;;;;16.20;9.15;;;;;;;16.30;81.51;101512.41;6270743;23;20008;-81
2022/06/12 01:20:47;;;;;;;19.88;9.45;;;;;;;16.28;81.52;101517.03;6257741;23;20024;-82
2022/06/12 01:23:39;;;;;;;19.80;9.30;;;;;;;16.25;81.82;101512.94;6259506;22;20024;-82
2022/06/12 01:26:51;;;;;;;20.60;8.80;;;;;;;16.26;81.57;101525.13;6260818;23;20046;-81
2022/06/12 01:29:26;;;;;;;23.15;9.82;;;;;;;16.22;81.58;101523.84;6259212;23;20024;-84
2022/06/12 01:31:59;;;;;;;22.45;9.23;;;;;;;16.18;82.23;101519.88;6257785;22;20028;-82
2022/06/12 01:34:35;;;;;;;19.48;8.73;;;;;;;16.20;81.92;101533.75;6254004;23;20020;-82
2022/06/12 01:37:17;;;;;;;23.55;9.38;;;;;;;16.15;81.98;101522.88;6260780;23;20011;-81
2022/06/12 01:39:50;;;;;;;21.00;9.85;;;;;;;16.11;82.22;101516.28;6266062;23;20093;-84
2022/06/12 01:42:24;;;;;;;21.77;9.40;;;;;;;16.06;81.89;101509.88;6268636;22;20024;-85
2022/06/12 01:45:07;;;;;;;21.52;9.13;;;;;;;16.07;82.40;101514.97;6257861;23;20096;-83
2022/06/12 01:47:40;;;;;;;19.15;9.23;;;;;;;16.07;81.46;101504.41;6251684;23;20508;-82
2022/06/12 01:50:15;;;;;;;19.33;9.77;;;;;;;15.98;81.67;101510.72;6251509;23;20020;-83
2022/06/12 01:52:51;;;;;;;17.67;8.88;;;;;;;15.94;82.05;101501.50;6253537;22;20099;-82
2022/06/12 01:55:28;;;;;;;18.25;9.80;;;;;;;15.89;82.32;101501.19;6253334;23;20052;-83
2022/06/12 01:58:02;;;;;;;22.10;9.10;;;;;;;15.86;82.78;101504.16;6254252;23;20035;-83
2022/06/12 02:00:30;;;;;;;23.38;9.57;;;;;;;15.83;82.59;101497.41;6252199;23;20024;-83
2022/06/12 02:03:05;;;;;;;18.20;8.57;;;;;;;15.79;82.48;101501.38;6253391;22;20023;-83
2022/06/12 02:05:36;;;;;;;16.17;8.82;;;;;;;15.79;82.67;101501.38;6254038;23;20035;-82
2022/06/12 02:08:09;;;;;;;22.02;8.88;;;;;;;15.72;82.91;101503.03;6253085;23;20023;-83
2022/06/12 02:10:42;;;;;;;24.83;8.73;;;;;;;15.64;83.31;101502.22;6251610;23;20020;-83
2022/06/12 02:13:12;;;;;;;;;;;;;;;15.53;83.91;101506.03;6254077;22;20024;-83
2022/06/12 02:15:46;;;;;;;20.70;9.07;;;;;;;15.52;83.45;101497.28;6255105;23;19916;-82
2022/06/12 02:18:20;;;;;;;15.50;8.82;;;;;;;15.49;83.52;101507.34;6254492;23;20305;-81
2022/06/12 02:20:51;;;;;;;19.23;9.77;;;;;;;15.48;83.90;101506.53;6254162;23;20031;-81
2022/06/12 02:23:22;;;;;;;21.67;9.50;;;;;;;15.43;83.98;101500.91;6252927;22;20024;-81
2022/06/12 02:25:52;;;;;;;23.80;8.98;;;;;;;15.34;84.00;101501.91;6250455;23;20016;-79
2022/06/12 02:28:24;;;;;;;24.27;10.20;;;;;;;15.28;84.24;101498.13;6251346;23;20027;-81
2022/06/12 02:30:57;;;;;;;16.48;8.68;;;;;;;15.34;84.01;101493.19;6251128;23;20024;-80
2022/06/12 02:33:27;;;;;;;22.80;9.10;;;;;;;15.28;84.26;101492.84;6251483;22;20024;-83
2022/06/12 02:35:59;;;;;;;18.73;9.38;;;;;;;15.23;84.25;101489.88;6250181;23;20031;-83
2022/06/12 02:38:30;;;;;;;28.95;10.20;;;;;;;15.14;84.86;101492.69;6251038;23;20024;-80
2022/06/12 02:41:01;;;;;;;23.55;9.70;;;;;;;15.09;85.16;101495.00;6251941;23;20024;-81
2022/06/12 02:43:31;;;;;;;22.13;9.77;;;;;;;15.01;85.51;101500.28;6251589;23;20099;-80
2022/06/12 02:46:03;;;;;;;23.25;10.00;;;;;;;15.00;85.22;101499.44;6251455;23;20016;-79
2022/06/12 02:48:31;;;;;;;22.40;10.43;;;;;;;14.89;85.56;101499.75;6250285;23;20024;-81
2022/06/12 02:51:06;;;;;;;18.83;9.20;;;;;;;14.79;86.22;101501.72;6250123;23;20360;-81
2022/06/12 02:53:58;;;;;;;17.67;9.25;;;;;;;14.80;86.28;101509.47;6251173;23;20334;-84
2022/06/12 02:56:34;;;;;;;21.08;10.05;;;;;;;14.74;86.49;101507.47;6250112;23;20034;-81
2022/06/12 02:59:15;;;;;;;23.27;10.70;;;;;;;14.76;86.67;101499.41;6249281;23;20043;-81
2022/06/12 03:01:49;;;;;;;21.67;10.00;;;;;;;14.74;86.46;101502.19;6249772;22;20024;-83
2022/06/12 03:04:23;;;;;;;19.30;9.68;;;;;;;14.69;86.72;101503.66;6248216;23;20016;-82
2022/06/12 03:06:50;;;;;;;26.40;10.05;;;;;;;14.66;86.43;101507.44;6248322;23;20027;-82
2022/06/12 03:09:17;;;;;;;22.58;10.02;;;;;;;14.59;86.53;101506.47;6248757;23;20099;-84
2022/06/12 03:11:48;;;;;;;24.25;9.98;;;;;;;14.59;86.88;101504.66;6249574;22;20075;-81
2022/06/12 03:14:19;;;;;;;20.70;10.20;;;;;;;14.66;86.29;101504.81;6251856;23;20024;-80
2022/06/12 03:16:47;;;;;;;19.30;9.57;;;;;;;14.63;86.41;101506.97;6251705;23;20119;-80
2022/06/12 03:19:19;;;;;;;22.08;9.60;;;;;;;14.61;86.76;101504.50;6250064;23;20484;-80
2022/06/12 03:21:54;;;;;;;23.55;9.60;;;;;;;14.63;86.21;101513.06;6248024;22;20020;-80
2022/06/12 03:24:40;;;;;;;23.95;9.73;;;;;;;14.58;86.55;101507.44;6248241;23;20024;-80
2022/06/12 03:27:49;;;;;;;18.10;9.95;;;;;;;14.55;86.60;101507.78;6247559;23;20095;-81
2022/06/12 03:30:23;;;;;;;18.17;9.63;;;;;;;14.52;86.81;101506.28;6256845;23;20505;-84
2022/06/12 03:33:00;;;;;;;26.20;9.68;;;;;;;14.49;86.85;101503.16;6257807;22;20020;-83
2022/06/12 03:35:39;;;;;;;17.63;9.05;;;;;;;14.50;86.77;101507.44;6258024;23;20023;-82
2022/06/12 03:38:14;;;;;;;20.23;8.73;;;;;;;14.52;86.46;101516.00;6255891;23;20028;-81
2022/06/12 03:40:49;;;;;;;16.98;8.77;;;;;;;14.47;86.08;101507.75;6252293;23;20089;-82
2022/06/12 03:53:49;;;;;;;20.77;9.32;;;;;;;14.33;86.22;101537.28;6225876;23;20012;-81
2022/06/12 03:59:13;;;;;;;23.05;10.02;;;;;;;14.52;85.36;101526.53;6259365;23;20035;-81
2022/06/12 04:01:42;;;;;;;17.00;8.30;;;;;;;14.52;85.43;101548.41;6257427;22;20024;-80
2022/06/12 04:04:10;;;;;;;18.60;8.02;;;;;;;14.78;84.08;101514.06;6252509;23;20039;-80
2022/06/12 04:09:18;;;;;;;17.52;8.27;;;;;;;16.08;78.81;101537.75;6245642;23;20024;-82
2022/06/12 04:11:51;;;;;;;19.38;7.25;;;;;;;16.40;76.56;101525.41;6253505;23;20090;-80
2022/06/12 04:14:20;;;;;;;19.55;7.53;;;;;;;16.76;75.10;101534.50;6253391;23;20035;-81
2022/06/12 04:16:50;;;;;;;20.48;8.05;;;;;;;17.02;73.79;101536.78;6254269;22;20027;-82
2022/06/12 04:19:20;;;;;;;16.77;7.18;;;;;;;17.20;73.77;101534.69;6257706;23;20051;-81
2022/06/12 04:21:51;;;;;;;18.73;6.90;;;;;;;17.70;71.86;101532.44;6258849;23;20074;-80
2022/06/12 04:24:25;;;;;;;17.70;7.05;;;;;;;18.11;70.20;101538.94;6260296;23;20024;-80
2022/06/12 04:26:56;;;;;;;20.65;7.25;;;;;;;18.54;68.54;101525.81;6260031;22;20099;-80
2022/06/12 04:29:28;;;;;;;15.73;6.97;;;;;;;18.71;67.87;101534.41;6260628;23;20048;-80
2022/06/12 04:31:58;;;;;;;21.30;7.80;;;;;;;18.77;67.16;101539.78;6261250;23;20028;-80
2022/06/12 04:34:29;;;;;;;18.00;7.25;;;;;;;18.06;69.60;101541.31;6258204;23;20020;-80
2022/06/12 04:36:59;;;;;;;18.55;7.18;;;;;;;18.19;69.90;101533.56;6250759;22;20027;-79
2022/06/12 04:39:30;;;;;;;20.38;7.65;;;;;;;18.28;69.75;101538.75;6250389;23;20098;-80
2022/06/12 04:41:57;;;;;;;19.90;8.05;;;;;;;17.75;71.89;101532.72;6256456;23;20267;-81
2022/06/12 04:44:26;;;;;;;23.25;8.25;;;;;;;17.90;72.14;101534.41;6257013;23;20031;-79
2022/06/12 04:46:55;;;;;;;22.52;8.50;;;;;;;18.76;68.88;101539.97;6256451;23;20030;-80
2022/06/12 04:49:25;;;;;;;30.83;9.10;;;;;;;18.82;68.25;101533.91;6256306;23;20020;-81
2022/06/12 04:51:54;;;;;;;27.65;9.18;;;;;;;18.69;68.87;101547.03;6256426;23;20035;-82
2022/06/12 04:54:22;;;;;;;23.42;8.02;;;;;;;18.73;69.26;101549.13;6252173;23;20031;-82
2022/06/12 04:56:50;;;;;;;21.23;8.00;;;;;;;19.54;65.98;101549.69;6252800;22;20047;-81
2022/06/12 04:59:18;;;;;;;20.92;7.90;;;;;;;19.30;66.91;101545.59;6252018;23;20032;-81
2022/06/12 05:01:46;;;;;;;20.33;7.78;;;;;;;20.08;64.35;101544.53;6253277;23;20349;-81
2022/06/12 05:04:13;;;;;;;17.70;7.50;;;;;;;19.99;64.31;101545.72;6254538;23;20047;-81
2022/06/12 05:06:40;;;;;;;19.25;7.22;;;;;;;20.14;64.39;101538.44;6254088;23;20020;-80
2022/06/12 05:09:08;;;;;;;15.25;7.03;;;;;;;20.25;64.02;101541.56;6254677;22;20043;-82
2022/06/12 05:11:35;;;;;;;14.40;6.45;;;;;;;19.79;65.37;101539.47;6252818;23;20469;-83
2022/06/12 05:14:04;;;;;;;12.40;6.03;;;;;;;20.26;64.59;101529.91;6253231;23;20027;-83
2022/06/12 05:16:34;;;;;;;14.80;6.70;;;;;;;20.46;64.68;101533.50;6257792;23;20095;-83
2022/06/12 05:19:01;;;;;;;16.42;6.47;;;;;;;20.91;62.99;101533.81;6258170;22;20024;-82
2022/06/12 05:21:30;;;;;;;14.45;6.35;;;;;;;20.91;63.10;101536.47;6258207;23;20094;-81
2022/06/12 05:23:57;;;;;;;12.25;6.20;;;;;;;21.35;61.21;101547.38;6257000;23;20021;-82
2022/06/12 05:26:24;;;;;;;12.75;5.53;;;;;;;22.52;57.61;101542.03;6255848;23;20054;-80
2022/06/12 05:28:52;;;;;;;14.35;6.05;;;;;;;23.13;55.32;101535.31;6254597;22;20031;-78
2022/06/12 05:31:20;;;;;;;11.30;5.70;;;;;;;23.13;55.03;101546.81;6254604;23;20024;-79
2022/06/12 05:33:47;;;;;;;17.27;6.03;;;;;;;23.42;53.75;101542.69;6259239;23;20035;-82
2022/06/12 05:36:15;;;;;;;12.95;5.60;;;;;;;23.86;52.03;101537.34;6257478;23;20017;-81
2022/06/12 05:38:44;;;;;;;15.82;5.70;;;;;;;23.84;51.66;101537.56;6258380;22;20329;-82
2022/06/12 05:41:13;;;;;;;13.50;5.10;;;;;;;24.05;51.26;101536.34;6258416;23;20031;-82
2022/06/12 05:43:41;;;;;;;13.77;5.55;;;;;;;23.66;52.44;101530.34;6259180;23;20028;-83
2022/06/12 05:46:08;;;;;;;11.27;5.40;;;;;;;23.60;52.18;101520.56;6254793;23;20127;-80
2022/06/12 05:48:36;;;;;;;11.75;5.53;;;;;;;23.64;51.55;101531.59;6254394;22;20056;-83
2022/06/12 05:51:04;;;;;;;15.35;6.05;;;;;;;23.48;52.55;101538.31;6250574;23;20024;-78
2022/06/12 05:53:32;;;;;;;13.02;5.47;;;;;;;23.97;50.85;101537.44;6247775;23;20051;-80
2022/06/12 05:56:00;;;;;;;13.45;5.47;;;;;;;24.69;48.95;101534.91;6248651;23;20445;-80
2022/06/12 05:58:29;;;;;;;14.85;6.47;;;;;;;24.43;47.85;101536.09;6249481;22;20062;-78
2022/06/12 06:00:58;;;;;;;15.13;5.80;;;;;;;23.62;48.87;101542.53;6249793;23;20024;-80
2022/06/12 06:03:25;;;;;;;10.63;6.35;;;;;;;23.33;49.61;101551.16;6250628;23;20020;-80
2022/06/12 06:05:53;;;;;;;18.27;7.20;;;;;;;23.87;48.08;101552.34;6251284;23;20385;-79
2022/06/12 06:08:20;;;;;;;13.07;6.30;;;;;;;24.23;47.23;101547.00;6251047;22;20031;-80
2022/06/12 06:10:47;;;;;;;15.40;7.05;;;;;;;24.23;47.94;101543.50;6247856;23;20073;-81
2022/06/12 06:13:15;;;;;;;13.15;6.70;;;;;;;24.38;46.81;101549.31;6252981;23;20031;-81
2022/06/12 06:15:41;;;;;;;14.68;6.25;;;;;;;24.57;46.86;101550.94;6253500;23;20020;-82
2022/06/12 06:18:09;;;;;;;13.38;5.85;;;;;;;24.65;46.62;101547.91;6258385;22;20020;-81
2022/06/12 06:20:38;;;;;;;16.50;6.63;;;;;;;25.30;44.98;101548.00;6260937;23;20407;-82
2022/06/12 06:23:07;;;;;;;14.77;6.82;;;;;;;25.69;43.69;101551.06;6262565;23;20024;-78
2022/06/12 06:25:36;;;;;;;13.15;6.72;;;;;;;25.63;44.04;101547.44;6261045;23;20020;-79
2022/06/12 06:28:06;;;;;;;13.18;6.25;;;;;;;25.56;43.46;101549.41;6261068;22;20024;-79
2022/06/12 06:30:33;;;;;;;12.00;5.60;;;;;;;26.60;40.83;101558.34;6259636;23;20024;-81
2022/06/12 06:33:00;;;;;;;11.90;4.88;;;;;;;26.41;40.71;101547.00;6258233;23;20024;-80
2022/06/12 06:35:27;;;;;;;12.50;4.68;;;;;;;24.90;42.43;101544.28;6256515;23;20040;-79
2022/06/12 06:37:54;;;;;;;13.52;4.60;;;;;;;24.69;41.73;101546.44;6257797;22;20024;-81
2022/06/12 06:40:26;;;;;;;11.75;4.13;;;;;;;24.81;42.46;101543.78;6257799;23;20020;-84
2022/06/12 06:42:53;;;;;;;9.40;4.00;;;;;;;25.44;41.84;101560.16;6259736;23;20028;-82
2022/06/12 06:48:06;;;;;;;6.80;3.63;;;;;;;25.51;41.12;101561.91;6259640;22;20073;-80
2022/06/12 06:50:34;;;;;;;8.93;3.97;;;;;;;26.05;40.49;101558.84;6259893;23;20024;-82
2022/06/12 06:53:01;;;;;;;8.45;3.90;;;;;;;25.36;40.71;101557.81;6262922;23;20126;-82
2022/06/12 06:55:31;;;;;;;10.63;4.35;;;;;;;26.12;40.01;101567.56;6266321;23;20126;-82
2022/06/12 06:57:58;;;;;;;9.45;3.67;;;;;;;26.38;39.71;101555.53;6262032;22;20028;-82
2022/06/12 07:00:30;;;;;;;8.93;4.20;;;;;;;26.05;40.19;101564.19;6266827;23;20062;-83
2022/06/12 07:02:57;;;;;;;11.10;4.50;;;;;;;25.43;40.85;101563.88;6264764;23;20035;-79
2022/06/12 07:05:24;;;;;;;11.82;4.80;;;;;;;25.15;40.50;101561.03;6261280;23;20020;-81
2022/06/12 07:07:53;;;;;;;11.25;4.78;;;;;;;25.59;40.64;101553.50;6259681;22;20024;-80
2022/06/12 07:10:23;;;;;;;11.60;4.50;;;;;;;25.91;39.90;101560.16;6258021;23;20535;-81
2022/06/12 07:12:56;;;;;;;9.90;4.40;;;;;;;24.99;41.34;101551.81;6259356;23;20032;-81
2022/06/12 07:15:25;;;;;;;12.18;4.53;;;;;;;25.55;41.01;101561.19;6261036;23;20026;-82
2022/06/12 07:17:54;;;;;;;8.60;4.25;;;;;;;25.72;40.53;101567.50;6261457;22;20027;-82
2022/06/12 07:20:30;;;;;;;11.13;4.50;;;;;;;26.00;40.20;101569.44;6263570;23;20024;-83
2022/06/12 07:22:58;;;;;;;8.90;3.75;;;;;;;25.95;38.68;101561.31;6261444;23;20021;-83
2022/06/12 07:25:25;;;;;;;15.15;4.63;;;;;;;25.64;39.62;101553.63;6257123;23;20016;-82
2022/06/12 07:27:53;;;;;;;10.23;4.15;;;;;;;26.38;37.42;101568.94;6257691;22;20024;-80
2022/06/12 07:30:23;;;;;;;10.55;4.75;;;;;;;26.88;36.76;101575.53;6257562;23;20043;-79
2022/06/12 07:32:50;;;;;;;8.90;3.67;;;;;;;26.44;37.54;101564.50;6257927;23;20024;-79
2022/06/12 07:35:27;;;;;;;8.48;3.63;;;;;;;27.62;34.91;101563.63;6254479;23;20028;-83
2022/06/12 07:37:54;;;;;;;8.70;3.33;;;;;;;27.66;33.70;101555.88;6253483;22;20024;-84
2022/06/12 07:40:25;;;;;;;12.57;4.00;;;;;;;26.82;35.42;101558.50;6258193;23;20028;-83
2022/06/12 07:42:59;;;;;;;8.73;3.92;;;;;;;26.75;36.58;101564.00;6256477;23;20030;-82
2022/06/12 07:45:30;;;;;;;9.57;4.53;;;;;;;26.44;37.26;101565.31;6256123;23;20030;-83
2022/06/12 07:48:05;;;;;;;7.60;3.63;;;;;;;26.38;37.16;101565.44;6255865;22;20020;-83
2022/06/12 07:50:32;;;;;;;6.95;3.22;;;;;;;27.14;36.06;101572.22;6253284;23;20318;-82
2022/06/12 07:52:59;;;;;;;6.95;3.10;;;;;;;27.21;34.45;101574.75;6256761;23;20024;-83
2022/06/12 07:55:27;;;;;;;10.25;3.90;;;;;;;26.36;35.91;101562.19;6258636;23;20075;-80
2022/06/12 07:57:56;;;;;;;8.02;3.55;;;;;;;26.12;36.61;101558.72;6252799;22;20020;-82
2022/06/12 08:00:24;;;;;;;8.75;3.83;;;;;;;26.12;36.79;101562.22;6253231;23;20058;-83
2022/06/12 08:02:51;;;;;;;5.75;3.47;;;;;;;26.18;36.93;101565.81;6257414;23;20039;-81
2022/06/12 08:05:20;;;;;;;8.00;3.60;;;;;;;26.26;36.32;101549.34;6257338;23;20054;-84
2022/06/12 08:07:55;;;;;;;5.80;3.13;;;;;;;26.38;35.70;101562.78;6257608;22;20031;-84
2022/06/12 08:10:23;;;;;;;6.72;3.15;;;;;;;27.54;34.75;101552.44;6258041;23;20020;-84
2022/06/12 08:13:01;;;;;;;7.93;3.20;;;;;;;27.68;34.31;101564.50;6257666;23;20055;-85
2022/06/12 08:15:31;;;;;;;6.80;2.90;;;;;;;27.32;34.28;101550.50;6257778;23;20016;-83
2022/06/12 08:18:04;;;;;;;7.75;3.17;;;;;;;27.38;33.91;101571.03;6253771;22;20028;-84
2022/06/12 08:20:33;;;;;;;5.75;2.70;;;;;;;26.60;34.96;101561.03;6254157;23;20073;-83
2022/06/12 08:23:06;;;;;;;8.32;3.47;;;;;;;27.60;34.09;101583.75;6255251;23;20042;-84
2022/06/12 08:25:38;;;;;;;4.93;2.97;;;;;;;27.60;32.58;101578.34;6254760;23;20028;-83
2022/06/12 08:28:07;;;;;;;8.57;3.60;;;;;;;26.40;34.13;101564.16;6254453;22;20051;-83
2022/06/12 08:30:38;;;;;;;8.20;3.60;;;;;;;26.57;34.18;101556.16;6260852;23;20026;-84
2022/06/12 08:33:20;;;;;;;8.38;3.33;;;;;;;26.90;35.40;101557.28;6263281;23;20020;-84
2022/06/12 08:35:52;;;;;;;7.78;3.28;;;;;;;26.18;34.52;101556.94;6266536;23;20062;-85
2022/06/12 08:38:20;;;;;;;4.65;2.30;;;;;;;26.97;30.76;101564.16;6262376;22;20047;-82
2022/06/12 08:40:53;;;;;;;8.02;2.90;;;;;;;26.45;32.72;101560.75;6263453;23;20074;-82
2022/06/12 08:43:48;;;;;;;5.10;3.17;;;;;;;26.94;34.00;101550.38;6262076;23;20028;-82
2022/06/12 08:46:41;;;;;;;7.18;2.85;;;;;;;26.92;31.34;101555.19;6260465;23;20043;-83
2022/06/12 08:49:25;;;;;;;6.80;2.50;;;;;;;26.70;30.18;101547.81;6259881;22;20036;-85
2022/06/12 08:52:42;;;;;;;3.53;2.10;;;;;;;25.55;30.77;101533.56;6260889;23;20028;-84
2022/06/12 08:55:31;;;;;;;7.82;3.05;;;;;;;26.62;30.40;101529.41;6261211;23;20023;-80
2022/06/12 08:58:10;;;;;;;5.32;2.38;;;;;;;26.41;31.40;101527.41;6260155;22;20094;-84
2022/06/12 09:01:05;;;;;;;5.97;2.80;;;;;;;26.95;32.21;101531.31;6263301;23;20020;-83
2022/06/12 09:07:10;;;;;;;4.68;2.22;;;;;;;26.34;31.32;101527.53;6197975;23;20022;-85
2022/06/12 09:10:06;;;;;;;4.95;2.15;;;;;;;25.86;31.27;101530.56;6259532;23;20027;-82
2022/06/12 09:12:47;;;;;;;5.63;2.60;;;;;;;26.22;31.29;101539.31;6260270;23;20035;-82
2022/06/12 09:15:39;;;;;;;6.25;2.60;;;;;;;26.67;30.29;101520.63;6259033;23;20016;-82
2022/06/12 09:18:44;;;;;;;5.82;2.38;;;;;;;26.23;31.68;101516.81;6259571;22;20027;-83
2022/06/12 09:21:25;;;;;;;8.32;2.65;;;;;;;25.31;32.86;101505.97;6260344;23;20020;-81
2022/06/12 09:27:24;;;;;;;6.65;2.63;;;;;;;25.71;31.13;101511.44;6254504;23;20016;-82
2022/06/12 09:30:23;;;;;;;4.65;2.63;;;;;;;25.83;32.69;101498.03;6261282;23;20020;-82
2022/06/12 09:36:24;;;;;;;5.80;2.55;;;;;;;25.66;33.64;101503.28;6256300;23;20016;-80
2022/06/12 09:39:38;;;;;;;9.50;3.30;;;;;;;26.21;32.52;101506.31;6256819;22;20042;-83
2022/06/12 09:42:57;;;;;;;6.53;3.13;;;;;;;26.13;34.16;101512.88;6248687;23;20050;-82
2022/06/12 09:45:28;;;;;;;12.63;3.33;;;;;;;25.88;34.54;101500.81;6260380;23;20016;-81
2022/06/12 09:48:05;;;;;;;7.78;3.30;;;;;;;26.16;34.00;101492.00;6260786;22;20024;-81
2022/06/12 09:50:52;;;;;;;8.88;3.22;;;;;;;26.15;33.40;101511.81;6264281;23;20020;-83
2022/06/12 09:53:39;;;;;;;8.18;3.60;;;;;;;25.73;34.54;101499.44;6262245;23;20026;-82
2022/06/12 09:56:11;;;;;;;8.68;3.25;;;;;;;25.69;35.92;101503.66;6263925;23;20047;-82
2022/06/12 09:58:44;;;;;;;7.75;3.33;;;;;;;25.33;35.52;101483.25;6264192;22;20021;-82
2022/06/12 10:01:14;;;;;;;8.05;3.17;;;;;;;26.15;34.76;101501.09;6267396;23;20024;-81
2022/06/12 10:03:46;;;;;;;12.30;3.65;;;;;;;25.90;35.39;101490.69;6268178;23;20051;-81
2022/06/12 10:06:23;;;;;;;9.15;3.33;;;;;;;24.92;36.65;101489.47;6264706;23;20016;-83
2022/06/12 10:08:54;;;;;;;7.75;3.30;;;;;;;25.08;36.76;101491.50;6249928;22;20028;-82
2022/06/12 10:11:25;;;;;;;10.73;3.50;;;;;;;25.40;35.43;101483.97;6253071;23;20020;-79
2022/06/12 10:13:58;;;;;;;6.90;3.38;;;;;;;25.42;37.09;101487.22;6255140;23;20515;-80
2022/06/12 10:16:28;;;;;;;;;;;;;;;25.50;37.20;101486.06;6256957;23;20061;-80
2022/06/12 10:19:00;;;;;;;8.65;3.58;;;;;;;25.28;37.90;101495.72;6257381;22;19942;-80
2022/06/12 10:21:29;;;;;;;;;;;;;;;25.62;38.14;101491.38;6255339;23;20026;-79
2022/06/12 10:23:55;;;;;;;10.85;3.50;;;;;;;25.46;36.26;101485.69;6255337;23;19915;-80
2022/06/12 10:26:25;;;;;;;9.68;3.30;;;;;;;25.52;37.21;101491.19;6254388;23;20119;-81
2022/06/12 10:29:02;;;;;;;9.60;3.53;;;;;;;24.81;37.79;101491.09;6253123;22;20028;-80
2022/06/12 10:31:33;;;;;;;8.75;3.45;;;;;;;25.21;37.37;101487.78;6252938;23;20031;-81
2022/06/12 10:34:14;;;;;;;9.27;3.13;;;;;;;25.11;35.85;101485.69;6252852;23;20024;-80
2022/06/12 10:36:43;;;;;;;7.70;3.10;;;;;;;25.06;37.01;101471.34;6253104;23;20446;-81
2022/06/12 10:39:15;;;;;;;6.72;3.20;;;;;;;24.73;37.42;101478.03;6257621;22;20020;-80
2022/06/12 10:41:48;;;;;;;9.13;3.25;;;;;;;25.36;37.37;101474.75;6254115;23;20094;-80
2022/06/12 10:44:37;;;;;;;8.73;3.70;;;;;;;25.39;36.57;101463.56;6252460;23;20611;-82
2022/06/12 10:47:16;;;;;;;8.05;3.30;;;;;;;25.24;37.85;101457.84;6256053;23;20027;-80
2022/06/12 10:49:44;;;;;;;9.68;3.40;;;;;;;24.85;38.95;101461.19;6256127;23;20024;-81
2022/06/12 10:52:17;;;;;;;9.05;3.30;;;;;;;25.40;37.57;101467.06;6257904;23;20058;-81
2022/06/12 10:54:45;;;;;;;6.68;2.92;;;;;;;25.42;36.71;101463.09;6261422;23;20020;-82
2022/06/12 10:57:32;;;;;;;7.47;3.17;;;;;;;25.24;35.74;101463.22;6263932;22;20055;-81
2022/06/12 11:00:04;;;;;;;8.60;3.20;;;;;;;25.59;34.36;101457.00;6261132;23;20024;-83
2022/06/12 11:02:52;;;;;;;5.38;2.90;;;;;;;25.36;34.33;101456.00;6257917;23;20030;-82
2022/06/12 11:05:41;;;;;;;8.68;3.30;;;;;;;25.52;37.06;101457.13;6255590;23;20067;-82
2022/06/12 11:08:23;;;;;;;8.70;3.20;;;;;;;25.54;36.26;101462.25;6255687;22;20024;-81
2022/06/12 11:10:59;;;;;;;11.07;3.47;;;;;;;25.58;36.20;101450.00;6248698;23;20051;-78
2022/06/12 11:13:46;;;;;;;9.60;3.42;;;;;;;25.30;35.39;101454.25;6252801;23;20031;-81
2022/06/12 11:16:25;;;;;;;10.10;3.28;;;;;;;24.88;34.70;101452.69;6251591;23;20059;-80
2022/06/12 11:19:15;;;;;;;8.60;3.40;;;;;;;25.57;35.25;101443.84;6251757;22;20329;-80
2022/06/12 11:21:54;;;;;;;6.65;3.05;;;;;;;25.48;35.35;101449.81;6245915;23;20101;-81
2022/06/12 11:24:25;;;;;;;8.98;3.58;;;;;;;25.35;36.72;101454.38;6256683;23;20024;-81
2022/06/12 11:27:21;;;;;;;16.88;4.20;;;;;;;25.58;35.36;101452.69;6255968;23;20074;-82
2022/06/12 11:30:05;;;;;;;8.82;4.50;;;;;;;25.16;36.54;101450.16;6253850;23;20338;-82
2022/06/12 11:32:50;;;;;;;8.77;3.65;;;;;;;25.58;37.11;101441.97;6255621;23;20054;-82
2022/06/12 11:35:37;;;;;;;8.77;3.40;;;;;;;25.82;36.42;101450.81;6261808;23;20075;-81
2022/06/12 11:38:32;;;;;;;4.80;2.72;;;;;;;25.60;36.89;101434.50;6256794;22;20074;-81
2022/06/12 11:41:10;;;;;;;8.57;3.08;;;;;;;25.59;35.59;101433.69;6255644;23;20020;-81
2022/06/12 11:43:41;;;;;;;11.15;3.25;;;;;;;25.81;36.63;101441.97;6259588;23;20022;-80
2022/06/12 11:46:24;;;;;;;10.10;3.35;;;;;;;25.61;37.96;101425.44;6255116;23;20024;-81
2022/06/12 11:49:07;;;;;;;6.03;3.30;;;;;;;25.56;36.14;101428.81;6256155;22;20027;-82
2022/06/12 11:51:43;;;;;;;9.77;4.05;;;;;;;25.88;37.51;101429.25;6258073;23;20020;-83
2022/06/12 11:54:27;;;;;;;13.77;4.18;;;;;;;25.24;37.61;101424.91;6257923;23;20057;-84
2022/06/12 11:57:04;;;;;;;8.98;3.72;;;;;;;25.09;37.24;101412.78;6259092;23;20024;-82
2022/06/12 11:59:46;;;;;;;10.55;3.70;;;;;;;25.26;36.79;101430.84;6257215;22;20031;-82
2022/06/12 12:02:25;;;;;;;9.88;3.60;;;;;;;25.66;37.73;101420.22;6260085;23;20078;-83
2022/06/12 12:05:23;;;;;;;9.40;3.38;;;;;;;26.07;35.28;101424.50;6260611;23;20024;-83
2022/06/12 12:08:05;;;;;;;7.68;3.45;;;;;;;25.76;35.62;101407.00;6256927;22;20108;-80
2022/06/12 12:10:44;;;;;;;13.35;3.90;;;;;;;25.74;36.95;101419.84;6260993;23;20420;-80
2022/06/12 12:13:17;;;;;;;7.95;3.30;;;;;;;25.68;35.86;101421.59;6266715;23;20028;-81
2022/06/12 12:15:48;;;;;;;10.85;3.83;;;;;;;25.54;35.77;101414.84;6256097;23;20024;-81
2022/06/12 12:18:23;;;;;;;9.32;3.67;;;;;;;25.40;35.61;101408.94;6255760;22;20020;-81
2022/06/12 12:20:52;;;;;;;10.20;3.53;;;;;;;25.43;36.53;101403.09;6258079;23;20024;-81